< Cyclone 197412 1974 Season Cyclone 197414 >
Cyclone 197413 (YVONNE)
General InformationTrack Information on Google MapsDetailed Wind Information || ResourceGoogle EarthGE AnimationAtom FeedGeoJSON
Detalied Best Track (Time Zone = UTC)
Year Month Day Hour Lat. Long. Pressure (hPa) Wind (kt) Class Image Chart
1974 2 8 11 -18.2 152.6 1006 20 2 -- --
1974 2 8 23 -18.5 150.6 1004 25 2 -- --
1974 2 9 02 -18.6 150.1 1002 25 2 -- --
1974 2 9 11 -18.5 148.4 1002 30 2 -- --
1974 2 9 14 -18.4 147.8 999 40 3 -- --
1974 2 9 23 -17.8 146.1 995 55 4 -- --
1974 2 10 11 -17.6 144.0 1003 30 2 -- --
1974 2 10 23 -17.4 142.0 1004 25 2 -- --
1974 2 11 11 -17.0 140.3 999 25 2 -- --
1974 2 11 17 -16.8 140.0 998 25 2 -- --
1974 2 11 23 -16.5 139.8 998 25 2 -- --
1974 2 12 05 -16.2 139.7 998 30 2 -- --
1974 2 12 11 -15.7 139.5 998 30 2 -- --
1974 2 12 17 -15.5 139.3 994 40 3 -- --
1974 2 12 23 -15.3 138.9 992 50 4 -- --
1974 2 13 05 -15.2 138.5 990 50 4 -- --
1974 2 13 11 -15.4 138.0 992 50 4 -- --
1974 2 13 17 -15.7 137.5 992 50 4 -- --
1974 2 13 23 -16.3 137.2 995 50 4 -- --
1974 2 14 02 -15.9 137.0 995 30 2 -- --
< Cyclone 197412 1974 Season Cyclone 197414 >

Help